createdAt,value
2022-09-14T00:00:44.346Z,1.00
2022-09-14T00:03:16.219Z,1.15
2022-09-14T00:05:47.747Z,0.57
2022-09-14T00:08:19.095Z,0.88
2022-09-14T00:10:50.521Z,0.62
2022-09-14T00:13:21.944Z,0.68
2022-09-14T00:15:53.260Z,1.42
2022-09-14T00:18:28.352Z,0.93
2022-09-14T00:21:02.613Z,1.10
2022-09-14T00:23:35.600Z,0.72
2022-09-14T00:26:08.639Z,0.88
2022-09-14T00:28:41.712Z,0.70
2022-09-14T00:31:14.057Z,1.17
2022-09-14T00:33:48.088Z,0.80
2022-09-14T00:36:22.126Z,0.90
2022-09-14T00:38:56.516Z,0.72
2022-09-14T00:41:31.741Z,0.85
2022-09-14T00:44:06.225Z,0.80
2022-09-14T00:46:40.549Z,0.90
2022-09-14T00:49:15.043Z,0.80
2022-09-14T00:51:49.374Z,1.05
2022-09-14T00:54:21.721Z,0.60
2022-09-14T00:56:54.153Z,1.00
2022-09-14T00:59:27.806Z,0.85
2022-09-14T01:01:59.693Z,0.62
2022-09-14T01:04:31.561Z,0.47
2022-09-14T01:07:06.140Z,0.55
2022-09-14T01:09:40.782Z,0.93
2022-09-14T01:12:17.318Z,1.17
2022-09-14T01:14:51.909Z,0.60
2022-09-14T01:17:26.671Z,1.95
2022-09-14T01:20:07.844Z,1.52
2022-09-14T01:22:42.892Z,0.40
2022-09-14T01:25:19.405Z,0.72
2022-09-14T01:27:52.319Z,0.93
2022-09-14T01:30:25.125Z,0.95
2022-09-14T01:32:59.414Z,0.65
2022-09-14T01:35:34.017Z,0.50
2022-09-14T01:38:08.505Z,0.68
2022-09-14T01:40:42.842Z,0.80
2022-09-14T01:43:17.033Z,0.53
2022-09-14T01:45:51.417Z,2.87
2022-09-14T01:48:26.163Z,0.80
2022-09-14T01:51:00.911Z,1.30
2022-09-14T01:53:37.235Z,0.60
2022-09-14T01:56:13.985Z,0.85
2022-09-14T01:58:49.537Z,0.93
2022-09-14T02:01:25.019Z,1.50
2022-09-14T02:03:59.794Z,0.78
2022-09-14T02:06:34.308Z,0.60
2022-09-14T02:09:07.934Z,0.50
2022-09-14T02:11:39.775Z,1.10
2022-09-14T02:14:11.252Z,0.88
2022-09-14T02:16:44.864Z,0.85
2022-09-14T02:19:19.370Z,0.70
2022-09-14T02:21:49.968Z,0.70
2022-09-14T02:24:21.608Z,0.72
2022-09-14T02:26:55.010Z,1.00
2022-09-14T02:29:26.302Z,0.45
2022-09-14T02:32:05.969Z,0.80
2022-09-14T02:34:41.080Z,0.70
2022-09-14T02:37:15.468Z,0.70
2022-09-14T02:39:50.986Z,0.70
2022-09-14T02:42:28.812Z,0.55
2022-09-14T02:45:05.250Z,0.90
2022-09-14T02:47:41.276Z,0.90
2022-09-14T02:50:17.003Z,0.98
2022-09-14T02:52:51.843Z,1.07
2022-09-14T02:55:26.625Z,1.22
2022-09-14T02:58:07.304Z,0.70
2022-09-14T03:00:41.745Z,0.95
2022-09-14T03:03:15.668Z,1.00
2022-09-14T03:05:47.453Z,0.90
2022-09-14T03:08:18.855Z,0.90
2022-09-14T03:10:50.143Z,2.37
2022-09-14T03:13:21.423Z,0.78
2022-09-14T03:15:53.512Z,0.75
2022-09-14T03:18:24.853Z,1.27
2022-09-14T03:20:57.741Z,1.62
2022-09-14T03:23:29.253Z,2.00
2022-09-14T03:26:00.554Z,0.93
2022-09-14T03:28:31.867Z,0.72
2022-09-14T03:31:04.292Z,0.80
2022-09-14T03:33:36.484Z,0.75
2022-09-14T03:36:13.949Z,0.65
2022-09-14T03:38:46.862Z,1.00
2022-09-14T03:41:19.280Z,1.00
2022-09-14T03:43:51.683Z,0.72
2022-09-14T03:46:24.709Z,2.58
2022-09-14T03:48:57.515Z,0.90
2022-09-14T03:51:28.926Z,0.90
2022-09-14T03:54:00.171Z,0.80
2022-09-14T03:56:31.981Z,1.25
2022-09-14T03:59:03.510Z,1.00
2022-09-14T04:01:35.004Z,0.90
2022-09-14T04:04:06.332Z,0.90
2022-09-14T04:06:37.651Z,1.00
2022-09-14T04:09:08.921Z,1.07
2022-09-14T04:11:40.193Z,1.10
2022-09-14T04:14:11.703Z,1.10
2022-09-14T04:16:44.743Z,1.02
2022-09-14T04:19:16.071Z,1.15
2022-09-14T04:21:47.701Z,1.17
2022-09-14T04:24:19.435Z,1.12
2022-09-14T04:26:51.264Z,1.00
2022-09-14T04:29:22.525Z,1.20
2022-09-14T04:31:53.898Z,1.40
2022-09-14T04:34:25.398Z,1.25
2022-09-14T04:36:57.122Z,1.10
2022-09-14T04:39:28.504Z,1.90
2022-09-14T04:41:59.889Z,1.20
2022-09-14T04:44:31.567Z,1.85
2022-09-14T04:47:03.184Z,1.00
2022-09-14T04:49:34.671Z,1.05
2022-09-14T04:52:06.091Z,0.98
2022-09-14T04:54:37.493Z,1.10
2022-09-14T04:57:08.841Z,1.35
2022-09-14T04:59:40.294Z,2.62
2022-09-14T05:02:11.656Z,1.25
2022-09-14T05:04:43.099Z,1.20
2022-09-14T05:07:14.727Z,1.57
2022-09-14T05:09:46.198Z,1.60
2022-09-14T05:12:17.622Z,1.55
2022-09-14T05:14:49.381Z,2.20
2022-09-14T05:17:20.918Z,1.22
2022-09-14T05:19:52.636Z,1.35
2022-09-14T05:22:23.951Z,2.12
2022-09-14T05:24:55.390Z,1.40
2022-09-14T05:27:27.112Z,1.50
2022-09-14T05:29:58.521Z,1.20
2022-09-14T05:32:29.997Z,1.40
2022-09-14T05:35:01.412Z,1.75
2022-09-14T05:37:32.988Z,1.50
2022-09-14T05:40:06.091Z,2.45
2022-09-14T05:42:37.382Z,1.80
2022-09-14T05:45:10.656Z,1.32
2022-09-14T05:47:42.222Z,1.80
2022-09-14T05:50:14.680Z,1.32
2022-09-14T05:52:46.048Z,8.83
2022-09-14T05:55:17.781Z,1.47
2022-09-14T05:57:51.433Z,3.17
2022-09-14T06:00:22.914Z,1.50
2022-09-14T06:02:55.494Z,2.17
2022-09-14T06:05:26.742Z,1.77
2022-09-14T06:07:58.036Z,3.22
2022-09-14T06:10:29.420Z,1.80
2022-09-14T06:13:02.200Z,3.52
2022-09-14T06:15:35.424Z,2.15
2022-09-14T06:18:07.084Z,2.05
2022-09-14T06:20:38.542Z,2.12
2022-09-14T06:23:09.934Z,1.67
2022-09-14T06:25:41.224Z,1.67
2022-09-14T06:28:12.548Z,1.72
2022-09-14T06:30:45.827Z,1.77
2022-09-14T06:33:17.698Z,1.65
2022-09-14T06:35:57.478Z,1.95
2022-09-14T06:38:30.106Z,2.33
2022-09-14T06:41:04.854Z,1.80
2022-09-14T06:43:38.863Z,1.45
2022-09-14T06:46:13.469Z,1.70
2022-09-14T06:48:47.372Z,4.05
2022-09-14T06:51:20.734Z,1.50
2022-09-14T06:53:54.007Z,1.87
2022-09-14T06:56:25.485Z,1.65
2022-09-14T06:59:00.441Z,1.40
2022-09-14T07:01:32.112Z,1.82
2022-09-14T07:04:04.127Z,1.50
2022-09-14T07:06:40.593Z,1.57
2022-09-14T07:09:12.383Z,1.82
2022-09-14T07:11:44.485Z,2.62
2022-09-14T07:14:16.512Z,2.10
2022-09-14T07:16:47.931Z,1.35
2022-09-14T07:19:19.925Z,1.57
2022-09-14T07:21:52.992Z,1.32
2022-09-14T07:24:24.420Z,1.20
2022-09-14T07:26:56.466Z,1.57
2022-09-14T07:29:27.860Z,1.60
2022-09-14T07:31:59.376Z,1.07
2022-09-14T07:34:30.841Z,1.15
2022-09-14T07:37:02.224Z,1.52
2022-09-14T07:39:33.681Z,1.50
2022-09-14T07:42:05.213Z,1.37
2022-09-14T07:44:36.579Z,1.62
2022-09-14T07:47:07.972Z,1.60
2022-09-14T07:49:39.257Z,1.98
2022-09-14T07:52:11.206Z,1.95
2022-09-14T07:54:42.522Z,1.30
2022-09-14T07:57:13.851Z,1.50
2022-09-14T07:59:45.095Z,1.30
2022-09-14T08:02:17.466Z,1.27
2022-09-14T08:04:48.965Z,1.25
2022-09-14T08:07:20.516Z,2.55
2022-09-14T08:09:52.016Z,3.77
2022-09-14T08:12:23.724Z,1.92
2022-09-14T08:14:55.969Z,1.55
2022-09-14T08:17:27.591Z,1.42
2022-09-14T08:19:58.765Z,2.05
2022-09-14T08:22:30.551Z,1.30
2022-09-14T08:25:02.286Z,2.75
2022-09-14T08:27:33.756Z,2.12
2022-09-14T08:30:06.198Z,1.92
2022-09-14T08:32:37.538Z,2.12
2022-09-14T08:35:10.217Z,2.22
2022-09-14T08:37:41.558Z,2.42
2022-09-14T08:40:16.883Z,1.55
2022-09-14T08:42:50.425Z,3.37
2022-09-14T08:45:22.538Z,1.82
2022-09-14T08:47:54.912Z,1.45
2022-09-14T08:50:26.502Z,2.20
2022-09-14T08:52:59.373Z,2.25
2022-09-14T08:55:36.258Z,1.35
2022-09-14T08:58:10.743Z,1.62
2022-09-14T09:00:45.322Z,1.87
2022-09-14T09:03:35.558Z,1.40
2022-09-14T09:06:15.780Z,1.27
2022-09-14T09:08:50.410Z,1.50
2022-09-14T09:11:25.287Z,2.75
2022-09-14T09:13:58.620Z,1.60
2022-09-14T09:16:30.875Z,2.25
2022-09-14T09:19:04.578Z,1.40
2022-09-14T09:21:38.921Z,2.65
2022-09-14T09:24:16.739Z,1.60
2022-09-14T09:26:48.201Z,2.17
2022-09-14T09:29:20.012Z,1.87
2022-09-14T09:32:12.558Z,2.00
2022-09-14T09:34:43.950Z,1.57
2022-09-14T09:37:18.012Z,1.22
2022-09-14T09:39:50.246Z,1.50
2022-09-14T09:42:25.139Z,1.80
2022-09-14T09:45:02.606Z,1.42
2022-09-14T09:47:35.060Z,1.50
2022-09-14T09:50:09.467Z,2.65
2022-09-14T09:52:42.441Z,1.60
2022-09-14T09:55:21.413Z,1.30
2022-09-14T09:57:56.279Z,1.52
2022-09-14T10:00:29.697Z,1.77
2022-09-14T10:03:03.323Z,1.62
2022-09-14T10:05:34.674Z,1.90
2022-09-14T10:08:11.463Z,1.37
2022-09-14T10:10:45.136Z,1.40
2022-09-14T10:13:22.112Z,1.85
2022-09-14T10:15:54.165Z,1.35
2022-09-14T10:18:27.775Z,1.60
2022-09-14T10:21:10.761Z,1.50
2022-09-14T10:23:42.404Z,2.15
2022-09-14T10:26:28.334Z,1.95
2022-09-14T10:29:18.090Z,3.25
2022-09-14T10:31:50.993Z,1.70
2022-09-14T10:34:22.343Z,1.90
2022-09-14T10:36:56.733Z,1.62
2022-09-14T10:39:31.112Z,1.47
2022-09-14T10:42:05.652Z,1.60
2022-09-14T10:44:52.892Z,2.58
2022-09-14T10:47:39.405Z,2.30
2022-09-14T10:50:21.252Z,1.80
2022-09-14T10:52:56.620Z,1.25
2022-09-14T10:55:34.363Z,1.70
2022-09-14T10:58:24.539Z,1.70
2022-09-14T11:01:03.648Z,1.80
2022-09-14T11:03:46.344Z,2.77
2022-09-14T11:06:25.061Z,1.50
2022-09-14T11:09:00.204Z,2.02
2022-09-14T11:11:41.421Z,1.82
2022-09-14T11:14:29.513Z,2.45
2022-09-14T11:17:14.618Z,2.15
2022-09-14T11:19:52.274Z,1.87
2022-09-14T11:22:28.525Z,2.00
2022-09-14T11:25:03.636Z,2.08
2022-09-14T11:27:38.326Z,1.70
2022-09-14T11:30:15.546Z,2.10
2022-09-14T11:32:51.639Z,1.57
2022-09-14T11:35:26.080Z,2.08
2022-09-14T11:38:01.593Z,2.35
2022-09-14T11:40:36.360Z,2.12
2022-09-14T11:43:11.862Z,2.92
2022-09-14T11:45:46.910Z,1.95
2022-09-14T11:50:59.824Z,4.22
2022-09-14T11:53:32.760Z,3.85
2022-09-14T11:56:05.101Z,2.90
2022-09-14T11:58:36.638Z,2.92
2022-09-14T12:01:27.398Z,4.08
2022-09-14T12:04:16.293Z,2.33
2022-09-14T12:06:56.306Z,2.77
2022-09-14T12:09:45.343Z,2.35
2022-09-14T12:12:41.183Z,2.50
2022-09-14T12:15:20.798Z,2.25
2022-09-14T12:17:53.690Z,2.87
2022-09-14T12:20:44.495Z,2.40
2022-09-14T12:23:28.457Z,2.83
2022-09-14T12:26:08.437Z,2.98
2022-09-14T12:28:46.727Z,2.92
2022-09-14T12:32:01.168Z,2.55
2022-09-14T12:34:34.905Z,2.20
2022-09-14T12:37:32.901Z,3.40
2022-09-14T12:40:36.616Z,2.98
2022-09-14T12:43:50.789Z,2.75
2022-09-14T12:49:40.665Z,4.20
2022-09-14T12:52:20.267Z,4.10
2022-09-14T12:55:03.789Z,4.20
2022-09-14T12:57:39.620Z,3.50
2022-09-14T13:00:16.128Z,5.15
2022-09-14T13:03:04.492Z,3.62
2022-09-14T13:05:36.442Z,5.35
2022-09-14T13:08:12.902Z,3.80
2022-09-14T13:10:49.672Z,3.37
2022-09-14T13:13:24.516Z,3.30
2022-09-14T13:15:59.029Z,3.35
2022-09-14T13:18:34.474Z,3.33
2022-09-14T13:21:18.614Z,3.75
2022-09-14T13:23:50.793Z,3.87
2022-09-14T13:26:24.708Z,4.50
2022-09-14T13:28:58.821Z,4.25
2022-09-14T13:31:33.458Z,4.65
2022-09-14T13:34:05.655Z,3.27
2022-09-14T13:36:39.659Z,4.62
2022-09-14T13:39:15.279Z,3.25
2022-09-14T13:41:46.691Z,3.33
2022-09-14T13:44:18.801Z,3.85
2022-09-14T13:46:49.911Z,3.20
2022-09-14T13:49:21.424Z,4.75
2022-09-14T13:51:52.847Z,3.58
2022-09-14T13:54:30.935Z,3.55
2022-09-14T13:57:15.196Z,2.75
2022-09-14T14:00:09.453Z,2.83
2022-09-14T14:02:46.162Z,2.37
2022-09-14T14:05:29.339Z,2.27
2022-09-14T14:08:04.739Z,2.15
2022-09-14T14:10:39.140Z,2.17
2022-09-14T14:13:10.533Z,2.20
2022-09-14T14:15:44.498Z,2.55
2022-09-14T14:21:34.278Z,2.98
2022-09-14T14:24:28.086Z,2.12
2022-09-14T14:27:00.079Z,4.40
2022-09-14T14:29:31.572Z,2.33
2022-09-14T14:32:03.338Z,2.85
2022-09-14T14:34:34.779Z,4.05
2022-09-14T14:37:06.333Z,1.62
2022-09-14T14:39:37.833Z,2.20
2022-09-14T14:42:10.664Z,1.95
2022-09-14T14:44:43.276Z,1.82
2022-09-14T14:47:16.646Z,2.55
2022-09-14T14:49:49.392Z,2.42
2022-09-14T14:52:20.795Z,2.50
2022-09-14T14:54:52.061Z,2.58
2022-09-14T14:57:23.395Z,2.02
2022-09-14T14:59:54.776Z,2.10
2022-09-14T15:02:26.303Z,2.12
2022-09-14T15:04:58.001Z,2.33
2022-09-14T15:07:29.829Z,2.05
2022-09-14T15:10:01.256Z,2.30
2022-09-14T15:12:33.454Z,2.27
2022-09-14T15:15:06.836Z,3.25
2022-09-14T15:17:38.385Z,2.08
2022-09-14T15:20:11.631Z,2.72
2022-09-14T15:22:43.561Z,2.72
2022-09-14T15:25:16.703Z,3.00
2022-09-14T15:27:49.185Z,2.22
2022-09-14T15:30:20.810Z,3.02
2022-09-14T15:32:52.448Z,2.72
2022-09-14T15:35:24.263Z,2.58
2022-09-14T15:37:58.053Z,3.90
2022-09-14T15:40:29.646Z,2.72
2022-09-14T15:43:01.318Z,3.52
2022-09-14T15:45:32.624Z,2.92
2022-09-14T15:48:04.444Z,3.22
2022-09-14T15:50:37.466Z,4.30
2022-09-14T15:53:08.896Z,3.92
2022-09-14T15:55:42.406Z,3.83
2022-09-14T15:58:14.459Z,2.92
2022-09-14T16:00:45.869Z,4.22
2022-09-14T16:03:17.326Z,5.67
2022-09-14T16:05:48.833Z,3.42
2022-09-14T16:08:20.890Z,3.52
2022-09-14T16:10:58.534Z,4.55
2022-09-14T16:13:31.194Z,2.55
2022-09-14T16:16:07.373Z,2.80
2022-09-14T16:18:39.100Z,2.70
2022-09-14T16:21:12.344Z,2.95
2022-09-14T16:23:45.945Z,3.15
2022-09-14T16:26:21.238Z,2.80
2022-09-14T16:28:54.186Z,2.60
2022-09-14T16:31:27.815Z,2.55
2022-09-14T16:34:01.068Z,2.55
2022-09-14T16:36:35.929Z,2.50
2022-09-14T16:39:09.914Z,3.58
2022-09-14T16:41:42.649Z,3.05
2022-09-14T16:44:17.440Z,4.30
2022-09-14T16:46:49.726Z,3.45
2022-09-14T16:49:27.299Z,4.87
2022-09-14T16:51:59.650Z,3.35
2022-09-14T16:54:32.159Z,5.15
2022-09-14T16:57:04.859Z,3.90
2022-09-14T16:59:37.495Z,4.08
2022-09-14T17:02:10.580Z,3.62
2022-09-14T17:04:43.492Z,3.92
2022-09-14T17:07:15.943Z,4.58
2022-09-14T17:09:48.315Z,4.35
2022-09-14T17:12:21.165Z,3.77
2022-09-14T17:14:53.792Z,3.83
2022-09-14T17:17:26.188Z,4.47
2022-09-14T17:19:58.176Z,4.50
2022-09-14T17:22:30.475Z,4.12
2022-09-14T17:25:01.646Z,4.83
2022-09-14T17:27:33.994Z,4.37
2022-09-14T17:30:08.533Z,4.37
2022-09-14T17:32:40.877Z,4.92
2022-09-14T17:35:13.073Z,4.40
2022-09-14T17:37:44.377Z,4.17
2022-09-14T17:40:15.839Z,5.67
2022-09-14T17:42:47.388Z,4.83
2022-09-14T17:45:18.932Z,4.35
2022-09-14T17:47:50.232Z,4.60
2022-09-14T17:50:23.765Z,6.40
2022-09-14T17:52:56.140Z,4.25
2022-09-14T17:55:28.636Z,3.83
2022-09-14T17:57:59.973Z,4.20
2022-09-14T18:00:32.384Z,3.70
2022-09-14T18:03:05.310Z,3.65
2022-09-14T18:05:36.765Z,3.92
2022-09-14T18:08:09.483Z,3.00
2022-09-14T18:10:40.887Z,3.20
2022-09-14T18:13:13.293Z,2.70
2022-09-14T18:15:44.978Z,3.62
2022-09-14T18:18:17.352Z,2.95
2022-09-14T18:20:49.765Z,2.72
2022-09-14T18:23:21.906Z,5.40
2022-09-14T18:25:54.564Z,3.47
2022-09-14T18:28:26.388Z,3.50
2022-09-14T18:31:02.596Z,4.15
2022-09-14T18:33:34.022Z,3.95
2022-09-14T18:36:08.207Z,3.62
2022-09-14T18:38:40.774Z,3.83
2022-09-14T18:41:13.163Z,2.92
2022-09-14T18:43:46.890Z,3.62
2022-09-14T18:46:21.621Z,3.08
2022-09-14T18:48:55.962Z,3.33
2022-09-14T18:51:28.341Z,3.27
2022-09-14T18:54:03.137Z,4.00
2022-09-14T18:56:38.318Z,3.20
2022-09-14T18:59:13.059Z,4.03
2022-09-14T19:01:45.671Z,2.67
2022-09-14T19:04:17.260Z,3.65
2022-09-14T19:06:49.809Z,4.03
2022-09-14T19:09:22.192Z,3.10
2022-09-14T19:11:54.521Z,3.55
2022-09-14T19:14:25.838Z,3.30
2022-09-14T19:16:58.714Z,3.47
2022-09-14T19:19:30.244Z,3.25
2022-09-14T19:22:02.767Z,3.22
2022-09-14T19:24:35.031Z,2.33
2022-09-14T19:27:06.683Z,2.40
2022-09-14T19:29:39.148Z,2.45
2022-09-14T19:32:14.801Z,2.42
2022-09-14T19:34:46.231Z,2.00
2022-09-14T19:37:18.330Z,1.80
2022-09-14T19:39:51.147Z,2.10
2022-09-14T19:42:24.507Z,3.08
2022-09-14T19:44:57.051Z,2.72
2022-09-14T19:47:29.544Z,1.80
2022-09-14T19:50:01.808Z,2.95
2022-09-14T19:52:34.231Z,3.17
2022-09-14T19:55:06.148Z,2.12
2022-09-14T19:57:38.616Z,3.95
2022-09-14T20:00:16.344Z,3.55
2022-09-14T20:02:47.290Z,1.85
2022-09-14T20:05:19.830Z,2.25
2022-09-14T20:07:52.201Z,2.35
2022-09-14T20:10:26.435Z,3.17
2022-09-14T20:12:58.741Z,3.35
2022-09-14T20:15:31.581Z,2.77
2022-09-14T20:18:03.444Z,3.70
2022-09-14T20:20:37.651Z,4.05
2022-09-14T20:23:10.040Z,3.52
2022-09-14T20:25:41.437Z,4.58
2022-09-14T20:28:12.692Z,4.53
2022-09-14T20:30:45.199Z,5.37
2022-09-14T20:33:16.767Z,5.00
2022-09-14T20:35:49.082Z,4.37
2022-09-14T20:38:20.366Z,5.25
2022-09-14T20:40:58.969Z,5.15
2022-09-14T20:43:32.906Z,4.92
2022-09-14T20:46:06.779Z,5.62
2022-09-14T20:48:38.493Z,4.92
2022-09-14T20:51:09.914Z,4.95
2022-09-14T20:53:43.179Z,4.85
2022-09-14T20:56:16.338Z,4.65
2022-09-14T20:58:48.487Z,5.00
2022-09-14T21:01:22.273Z,4.35
2022-09-14T21:03:55.009Z,3.45
2022-09-14T21:06:27.525Z,4.80
2022-09-14T21:09:01.017Z,2.95
2022-09-14T21:11:33.953Z,3.20
2022-09-14T21:14:06.802Z,3.83
2022-09-14T21:16:41.579Z,3.47
2022-09-14T21:19:15.988Z,3.65
2022-09-14T21:21:48.930Z,2.65
2022-09-14T21:24:22.914Z,3.62
2022-09-14T21:26:54.297Z,3.55
2022-09-14T21:29:25.800Z,1.87
2022-09-14T21:31:57.274Z,2.45
2022-09-14T21:34:28.740Z,3.77
2022-09-14T21:37:01.486Z,3.25
2022-09-14T21:39:34.072Z,3.05
2022-09-14T21:42:07.517Z,2.80
2022-09-14T21:44:38.851Z,3.35
2022-09-14T21:47:11.197Z,3.30
2022-09-14T21:49:42.476Z,3.33
2022-09-14T21:52:14.765Z,3.40
2022-09-14T21:54:47.131Z,3.42
2022-09-14T21:57:19.504Z,3.25
2022-09-14T21:59:50.742Z,3.77
2022-09-14T22:02:22.224Z,3.47
2022-09-14T22:04:53.632Z,3.10
2022-09-14T22:07:25.492Z,2.92
2022-09-14T22:09:57.904Z,3.02
2022-09-14T22:12:31.217Z,5.20
2022-09-14T22:15:02.618Z,3.90
2022-09-14T22:17:34.510Z,3.20
2022-09-14T22:20:08.262Z,3.58
2022-09-14T22:22:39.535Z,5.08
2022-09-14T22:25:11.376Z,3.60
2022-09-14T22:27:43.687Z,3.35
2022-09-14T22:30:16.576Z,3.37
2022-09-14T22:32:48.074Z,3.77
2022-09-14T22:35:19.418Z,4.47
2022-09-14T22:37:50.771Z,3.05
2022-09-14T22:40:22.196Z,3.10
2022-09-14T22:42:53.604Z,4.05
2022-09-14T22:45:26.005Z,3.35
2022-09-14T22:47:58.334Z,3.58
2022-09-14T22:50:29.692Z,4.08
2022-09-14T22:53:01.954Z,3.95
2022-09-14T22:55:34.776Z,3.50
2022-09-14T22:58:06.051Z,3.12
2022-09-14T23:00:40.262Z,2.45
2022-09-14T23:03:12.671Z,2.80
2022-09-14T23:05:49.867Z,3.08
2022-09-14T23:08:22.016Z,2.70
2022-09-14T23:10:54.774Z,3.47
2022-09-14T23:13:27.142Z,2.58
2022-09-14T23:16:00.038Z,3.80
2022-09-14T23:18:31.271Z,3.02
2022-09-14T23:21:04.855Z,3.40
2022-09-14T23:23:38.704Z,2.72
2022-09-14T23:26:13.039Z,3.42
2022-09-14T23:28:44.395Z,2.80
2022-09-14T23:31:15.849Z,3.52
2022-09-14T23:33:50.693Z,3.42
2022-09-14T23:36:23.437Z,3.98
2022-09-14T23:38:55.897Z,3.85
2022-09-14T23:41:28.439Z,3.00
2022-09-14T23:43:59.706Z,2.92
2022-09-14T23:46:32.066Z,4.03
2022-09-14T23:49:03.430Z,2.83
2022-09-14T23:51:34.953Z,3.15
2022-09-14T23:54:08.124Z,3.05
2022-09-14T23:56:39.527Z,3.50
2022-09-14T23:59:14.256Z,3.37
